Time;durP1;ratioP1;P1;durP2;ratioP2;P2;SDS_P1;SDS_P2;PMS_P1;PMS_P2;Temp;Humidity;BMP_temperature;BMP_pressure;BME280_temperature;BME280_humidity;BME280_pressure;Samples;Min_cycle;Max_cycle;Signal;HPM_P1;HPM_P2
2022/03/11 00:01:48;;;;;;;17.45;9.75;;;;;;;;;;5018144;28;20520;-74
2022/03/11 00:04:14;;;;;;;23.50;12.18;;;;;;;;;;5012916;28;20120;-74
2022/03/11 00:06:58;;;;;;;19.30;10.05;;;;;;;;;;5017943;28;20048;-74
2022/03/11 00:09:42;;;;;;;26.98;12.32;;;;;;;;;;5019833;28;20499;-74
2022/03/11 00:12:08;;;;;;;18.65;9.55;;;;;;;;;;5019394;28;20028;-74
2022/03/11 00:14:34;;;;;;;17.60;9.82;;;;;;;;;;5019809;28;20033;-74
2022/03/11 00:17:02;;;;;;;17.80;10.10;;;;;;;;;;5019780;28;20174;-74
2022/03/11 00:19:28;;;;;;;17.25;9.07;;;;;;;;;;5017701;28;20535;-74
2022/03/11 00:21:55;;;;;;;15.43;8.30;;;;;;;;;;5018765;28;20196;-74
2022/03/11 00:24:20;;;;;;;16.30;7.80;;;;;;;;;;5019072;28;20064;-74
2022/03/11 00:26:45;;;;;;;17.15;8.35;;;;;;;;;;5019084;28;20129;-74
2022/03/11 00:29:11;;;;;;;12.77;7.38;;;;;;;;;;5018707;28;20072;-73
2022/03/11 00:31:37;;;;;;;14.43;7.78;;;;;;;;;;5019849;28;20029;-74
2022/03/11 00:34:05;;;;;;;17.73;8.07;;;;;;;;;;5019366;28;20118;-74
2022/03/11 00:36:30;;;;;;;15.35;8.60;;;;;;;;;;5018266;28;20056;-74
2022/03/11 00:38:55;;;;;;;14.75;8.40;;;;;;;;;;5034431;28;20770;-74
2022/03/11 00:41:21;;;;;;;18.48;8.60;;;;;;;;;;5017214;28;20083;-74
2022/03/11 00:43:46;;;;;;;14.65;7.68;;;;;;;;;;5017566;28;20029;-74
2022/03/11 00:46:12;;;;;;;12.50;7.53;;;;;;;;;;5018599;28;20760;-74
2022/03/11 00:48:37;;;;;;;12.43;7.85;;;;;;;;;;5018514;28;20124;-74
2022/03/11 00:51:02;;;;;;;13.70;7.82;;;;;;;;;;5017817;28;20175;-74
2022/03/11 00:53:28;;;;;;;15.00;8.57;;;;;;;;;;5018883;28;20249;-75
2022/03/11 00:55:53;;;;;;;16.65;8.38;;;;;;;;;;5019013;28;20037;-75
2022/03/11 00:58:21;;;;;;;16.00;8.88;;;;;;;;;;5016563;28;20108;-75
2022/03/11 01:00:47;;;;;;;13.05;8.60;;;;;;;;;;5018992;28;20052;-74
2022/03/11 01:03:12;;;;;;;15.05;8.93;;;;;;;;;;4993562;28;20427;-75
2022/03/11 01:05:38;;;;;;;12.77;7.75;;;;;;;;;;5018487;28;20030;-74
2022/03/11 01:08:05;;;;;;;14.43;8.27;;;;;;;;;;5018664;28;20026;-74
2022/03/11 01:10:30;;;;;;;13.68;8.13;;;;;;;;;;5018479;28;20127;-74
2022/03/11 01:12:56;;;;;;;11.80;7.93;;;;;;;;;;5018495;28;20035;-75
2022/03/11 01:15:22;;;;;;;12.80;8.02;;;;;;;;;;5016274;28;20098;-75
2022/03/11 01:17:47;;;;;;;14.20;8.20;;;;;;;;;;5017666;28;20180;-75
2022/03/11 01:20:13;;;;;;;13.98;8.48;;;;;;;;;;5017278;28;20433;-75
2022/03/11 01:22:39;;;;;;;14.48;8.30;;;;;;;;;;5018955;28;20052;-75
2022/03/11 01:25:05;;;;;;;16.38;8.68;;;;;;;;;;5018234;28;20055;-74
2022/03/11 01:27:30;;;;;;;14.35;8.70;;;;;;;;;;5009766;28;20028;-74
2022/03/11 01:29:56;;;;;;;16.08;8.88;;;;;;;;;;5018821;28;20160;-75
2022/03/11 01:32:24;;;;;;;14.20;8.82;;;;;;;;;;5017610;28;20355;-75
2022/03/11 01:34:49;;;;;;;16.83;8.63;;;;;;;;;;5018272;28;20029;-75
2022/03/11 01:37:15;;;;;;;15.32;8.52;;;;;;;;;;5017100;28;20253;-74
2022/03/11 01:39:40;;;;;;;15.98;8.32;;;;;;;;;;5018348;28;20052;-74
2022/03/11 01:42:06;;;;;;;17.25;9.30;;;;;;;;;;5015592;28;20076;-74
2022/03/11 01:44:32;;;;;;;16.65;8.75;;;;;;;;;;5009969;28;20021;-74
2022/03/11 01:46:57;;;;;;;16.02;8.95;;;;;;;;;;4993089;28;20163;-74
2022/03/11 01:49:23;;;;;;;17.65;8.95;;;;;;;;;;5018257;28;20287;-74
2022/03/11 01:51:49;;;;;;;15.50;9.23;;;;;;;;;;5018279;28;20040;-74
2022/03/11 01:54:14;;;;;;;15.80;9.48;;;;;;;;;;5008658;28;20032;-75
2022/03/11 01:56:40;;;;;;;15.93;9.23;;;;;;;;;;5015475;28;20875;-75
2022/03/11 01:59:06;;;;;;;15.32;9.05;;;;;;;;;;5017248;28;20029;-75
2022/03/11 02:01:34;;;;;;;16.40;9.50;;;;;;;;;;5031736;28;20520;-75
2022/03/11 02:04:00;;;;;;;15.35;9.20;;;;;;;;;;5007641;28;20041;-75
2022/03/11 02:06:29;;;;;;;17.20;9.30;;;;;;;;;;5009416;28;20052;-76
2022/03/11 02:08:54;;;;;;;14.38;8.85;;;;;;;;;;5016424;28;20135;-76
2022/03/11 02:11:20;;;;;;;14.55;9.25;;;;;;;;;;5016965;28;20041;-75
2022/03/11 02:13:47;;;;;;;15.70;9.48;;;;;;;;;;5017683;28;20036;-75
2022/03/11 02:16:17;;;;;;;15.93;9.40;;;;;;;;;;5017840;28;20384;-75
2022/03/11 02:18:42;;;;;;;15.30;9.50;;;;;;;;;;5017234;28;20120;-76
2022/03/11 02:21:09;;;;;;;17.23;9.75;;;;;;;;;;5016730;28;20492;-74
2022/03/11 02:23:45;;;;;;;16.15;9.38;;;;;;;;;;5015086;28;20033;-74
2022/03/11 02:26:10;;;;;;;16.33;9.50;;;;;;;;;;5015141;28;20416;-75
2022/03/11 02:28:35;;;;;;;14.98;9.15;;;;;;;;;;5016621;28;20124;-74
2022/03/11 02:31:01;;;;;;;18.35;9.82;;;;;;;;;;5009268;28;20025;-75
2022/03/11 02:33:27;;;;;;;15.52;9.13;;;;;;;;;;5015686;28;20037;-75
2022/03/11 02:35:53;;;;;;;18.00;10.02;;;;;;;;;;5017705;28;20057;-75
2022/03/11 02:38:18;;;;;;;15.07;8.95;;;;;;;;;;5016448;28;20108;-75
2022/03/11 02:40:44;;;;;;;18.48;9.40;;;;;;;;;;5017490;28;20401;-76
2022/03/11 02:43:12;;;;;;;17.65;9.50;;;;;;;;;;5007753;28;20036;-76
2022/03/11 02:45:38;;;;;;;17.88;9.68;;;;;;;;;;5017592;28;20465;-76
2022/03/11 02:48:05;;;;;;;17.95;9.68;;;;;;;;;;5026518;28;20178;-75
2022/03/11 02:50:33;;;;;;;17.10;9.05;;;;;;;;;;5016425;28;20264;-76
2022/03/11 02:52:58;;;;;;;17.23;10.40;;;;;;;;;;5016641;28;20085;-76
2022/03/11 02:55:24;;;;;;;17.42;9.80;;;;;;;;;;5014592;28;20470;-76
2022/03/11 02:57:49;;;;;;;16.33;9.98;;;;;;;;;;5015621;28;20037;-76
2022/03/11 03:00:15;;;;;;;19.02;10.45;;;;;;;;;;5012867;28;20171;-76
2022/03/11 03:02:40;;;;;;;16.60;10.02;;;;;;;;;;5009544;28;20059;-70
2022/03/11 03:05:06;;;;;;;19.60;10.25;;;;;;;;;;5013085;28;20123;-68
2022/03/11 03:07:32;;;;;;;17.83;9.98;;;;;;;;;;5016651;28;20040;-68
2022/03/11 03:09:58;;;;;;;17.10;9.52;;;;;;;;;;5007921;28;20033;-69
2022/03/11 03:12:26;;;;;;;16.50;9.40;;;;;;;;;;5008324;28;20492;-68
2022/03/11 03:14:54;;;;;;;15.25;9.60;;;;;;;;;;5015313;28;20037;-69
2022/03/11 03:17:21;;;;;;;16.33;10.40;;;;;;;;;;5016478;28;20223;-68
2022/03/11 03:19:51;;;;;;;18.88;9.95;;;;;;;;;;5014722;28;20040;-69
2022/03/11 03:22:16;;;;;;;19.45;9.93;;;;;;;;;;5013239;28;20037;-69
2022/03/11 03:24:44;;;;;;;17.55;10.05;;;;;;;;;;5014096;28;20463;-68
2022/03/11 03:27:10;;;;;;;15.13;9.20;;;;;;;;;;5015849;28;20041;-69
2022/03/11 03:29:35;;;;;;;16.60;10.15;;;;;;;;;;5016061;28;20083;-69
2022/03/11 03:32:01;;;;;;;15.52;10.25;;;;;;;;;;5015643;28;20041;-69
2022/03/11 03:34:30;;;;;;;16.73;9.00;;;;;;;;;;5015898;28;20203;-68
2022/03/11 03:36:57;;;;;;;17.30;9.25;;;;;;;;;;5015711;28;20120;-69
2022/03/11 03:39:22;;;;;;;20.75;10.73;;;;;;;;;;5009312;28;20037;-68
2022/03/11 03:41:48;;;;;;;21.15;9.65;;;;;;;;;;5007425;28;20033;-68
2022/03/11 03:44:13;;;;;;;15.15;9.20;;;;;;;;;;5014800;28;20073;-68
2022/03/11 03:46:38;;;;;;;17.55;10.15;;;;;;;;;;5015373;28;20037;-69
2022/03/11 03:49:03;;;;;;;17.80;10.05;;;;;;;;;;5008126;28;20108;-68
2022/03/11 03:51:29;;;;;;;15.65;9.55;;;;;;;;;;5030591;28;20444;-69
2022/03/11 03:53:54;;;;;;;17.52;10.02;;;;;;;;;;5014502;28;20040;-69
2022/03/11 03:56:22;;;;;;;17.27;10.35;;;;;;;;;;5014794;28;20520;-69
2022/03/11 03:58:48;;;;;;;16.02;10.00;;;;;;;;;;5024697;28;20134;-69
2022/03/11 04:01:14;;;;;;;16.80;9.95;;;;;;;;;;5007261;28;20563;-69
2022/03/11 04:03:39;;;;;;;16.55;10.98;;;;;;;;;;5016564;28;21909;-68
2022/03/11 04:06:04;;;;;;;19.38;10.25;;;;;;;;;;5006936;28;20029;-69
2022/03/11 04:08:30;;;;;;;17.13;10.82;;;;;;;;;;5016813;28;20178;-69
2022/03/11 04:10:58;;;;;;;18.90;9.88;;;;;;;;;;5015839;28;20104;-69
2022/03/11 04:13:23;;;;;;;19.55;9.95;;;;;;;;;;5017345;28;20021;-69
2022/03/11 04:15:48;;;;;;;16.13;9.38;;;;;;;;;;5008515;28;20036;-69
2022/03/11 04:18:13;;;;;;;17.38;10.13;;;;;;;;;;5015743;28;20045;-70
2022/03/11 04:20:40;;;;;;;18.45;10.65;;;;;;;;;;5015692;28;20234;-76
2022/03/11 04:23:05;;;;;;;16.52;10.40;;;;;;;;;;4992552;28;20105;-76
2022/03/11 04:25:30;;;;;;;19.73;10.65;;;;;;;;;;5015456;28;20095;-76
2022/03/11 04:27:58;;;;;;;16.58;10.00;;;;;;;;;;5014152;28;20036;-75
2022/03/11 04:30:23;;;;;;;17.35;10.32;;;;;;;;;;4993327;28;20049;-70
2022/03/11 04:32:49;;;;;;;14.88;9.93;;;;;;;;;;5015141;28;20037;-69
2022/03/11 04:35:20;;;;;;;20.00;10.68;;;;;;;;;;5018071;28;20040;-69
2022/03/11 04:37:48;;;;;;;16.30;9.98;;;;;;;;;;5019544;28;20101;-70
2022/03/11 04:40:13;;;;;;;18.17;10.77;;;;;;;;;;5010807;28;20618;-69
2022/03/11 04:42:38;;;;;;;16.60;10.07;;;;;;;;;;5019919;28;20032;-70
2022/03/11 04:45:06;;;;;;;15.95;10.05;;;;;;;;;;5018706;28;20048;-70
2022/03/11 04:47:32;;;;;;;16.35;10.45;;;;;;;;;;5018909;28;20505;-70
2022/03/11 04:49:57;;;;;;;18.50;10.00;;;;;;;;;;5012921;28;20045;-69
2022/03/11 04:52:25;;;;;;;17.13;10.00;;;;;;;;;;5020949;28;20626;-68
2022/03/11 04:54:50;;;;;;;17.20;10.48;;;;;;;;;;5020351;28;20080;-69
2022/03/11 04:57:16;;;;;;;16.40;9.75;;;;;;;;;;5019094;28;20033;-69
2022/03/11 04:59:44;;;;;;;18.52;10.45;;;;;;;;;;5021765;28;20235;-76
2022/03/11 05:02:12;;;;;;;17.77;9.70;;;;;;;;;;5019139;28;20060;-75
2022/03/11 05:04:37;;;;;;;17.40;10.32;;;;;;;;;;5020304;28;20529;-76
2022/03/11 05:07:04;;;;;;;17.48;10.25;;;;;;;;;;5018502;28;20037;-76
2022/03/11 05:09:30;;;;;;;22.42;9.70;;;;;;;;;;5020176;28;20849;-76
2022/03/11 05:11:55;;;;;;;19.92;9.98;;;;;;;;;;5018682;28;20022;-75
2022/03/11 05:14:20;;;;;;;18.45;10.23;;;;;;;;;;5020662;28;20024;-75
2022/03/11 05:16:46;;;;;;;18.90;9.70;;;;;;;;;;5014650;28;20045;-75
2022/03/11 05:19:11;;;;;;;17.45;10.35;;;;;;;;;;5021049;28;20034;-76
2022/03/11 05:21:37;;;;;;;18.20;10.45;;;;;;;;;;5019883;28;20392;-75
2022/03/11 05:24:03;;;;;;;18.35;10.60;;;;;;;;;;5019551;28;20025;-76
2022/03/11 05:26:29;;;;;;;16.08;9.55;;;;;;;;;;5020061;28;20429;-75
2022/03/11 05:28:58;;;;;;;18.40;10.32;;;;;;;;;;5018642;28;20037;-75
2022/03/11 05:31:25;;;;;;;14.77;9.45;;;;;;;;;;5019764;28;20144;-75
2022/03/11 05:33:50;;;;;;;17.00;9.55;;;;;;;;;;5019777;28;20567;-75
2022/03/11 05:36:16;;;;;;;17.70;10.60;;;;;;;;;;5021081;28;20031;-75
2022/03/11 05:38:44;;;;;;;17.38;9.88;;;;;;;;;;5020126;28;20032;-75
2022/03/11 05:41:10;;;;;;;17.45;10.30;;;;;;;;;;5020841;28;20116;-75
2022/03/11 05:43:36;;;;;;;19.52;10.70;;;;;;;;;;5020001;28;20342;-76
2022/03/11 05:46:02;;;;;;;18.50;11.05;;;;;;;;;;5033123;28;20087;-76
2022/03/11 05:48:29;;;;;;;17.77;9.55;;;;;;;;;;5029141;28;20722;-76
2022/03/11 05:50:55;;;;;;;18.27;10.52;;;;;;;;;;5019630;28;20041;-75
2022/03/11 05:53:21;;;;;;;17.77;10.45;;;;;;;;;;5011802;28;20033;-76
2022/03/11 05:55:46;;;;;;;16.75;9.40;;;;;;;;;;5019560;28;20049;-76
2022/03/11 05:58:14;;;;;;;15.10;9.30;;;;;;;;;;5020542;28;20025;-76
2022/03/11 06:00:39;;;;;;;16.40;10.00;;;;;;;;;;5019287;28;20037;-73
2022/03/11 06:03:05;;;;;;;17.58;9.43;;;;;;;;;;5018964;28;20096;-74
2022/03/11 06:05:32;;;;;;;20.70;9.70;;;;;;;;;;5033777;28;20033;-75
2022/03/11 06:07:59;;;;;;;22.30;9.38;;;;;;;;;;5018333;28;20083;-75
2022/03/11 06:10:26;;;;;;;19.75;10.27;;;;;;;;;;5018987;28;20200;-75
2022/03/11 06:12:52;;;;;;;21.08;9.85;;;;;;;;;;5018945;28;20584;-75
2022/03/11 06:15:17;;;;;;;18.38;9.32;;;;;;;;;;5018749;28;20036;-76
2022/03/11 06:17:43;;;;;;;20.48;9.25;;;;;;;;;;5018107;28;20183;-77
2022/03/11 06:20:12;;;;;;;14.43;9.05;;;;;;;;;;5014936;28;20427;-76
2022/03/11 06:22:48;;;;;;;16.52;9.07;;;;;;;;;;5017626;28;21443;-76
2022/03/11 06:25:14;;;;;;;;;;;;;;;;;;5017348;28;20017;-76
2022/03/11 06:27:39;;;;;;;18.70;9.27;;;;;;;;;;5018859;28;19916;-77
2022/03/11 06:30:04;;;;;;;16.90;8.65;;;;;;;;;;5006671;28;20062;-76
2022/03/11 06:32:30;;;;;;;16.88;9.45;;;;;;;;;;5021319;28;20378;-73
2022/03/11 06:34:55;;;;;;;18.00;9.10;;;;;;;;;;5014909;28;20036;-77
2022/03/11 06:37:21;;;;;;;17.15;9.35;;;;;;;;;;5014145;28;20051;-76
2022/03/11 06:39:46;;;;;;;15.90;8.30;;;;;;;;;;5007717;28;20434;-77
2022/03/11 06:42:11;;;;;;;19.95;9.55;;;;;;;;;;5014981;28;20031;-77
2022/03/11 06:44:36;;;;;;;20.17;9.35;;;;;;;;;;4993212;28;20041;-76
2022/03/11 06:47:02;;;;;;;18.08;9.20;;;;;;;;;;5016761;28;20349;-76
2022/03/11 06:49:27;;;;;;;18.75;8.65;;;;;;;;;;5017744;28;20037;-76
2022/03/11 06:51:53;;;;;;;16.75;9.05;;;;;;;;;;5013187;28;20404;-76
2022/03/11 06:54:19;;;;;;;18.15;9.18;;;;;;;;;;5025362;28;20028;-76
2022/03/11 06:56:46;;;;;;;18.73;9.35;;;;;;;;;;5013173;28;20386;-75
2022/03/11 06:59:14;;;;;;;17.95;9.68;;;;;;;;;;5010350;28;20464;-75
2022/03/11 07:01:39;;;;;;;16.58;9.23;;;;;;;;;;5025604;28;20064;-75
2022/03/11 07:04:07;;;;;;;19.02;9.13;;;;;;;;;;5015702;28;20459;-75
2022/03/11 07:06:33;;;;;;;18.05;9.27;;;;;;;;;;5011303;28;20033;-78
2022/03/11 07:08:59;;;;;;;17.85;9.65;;;;;;;;;;5007791;28;20037;-77
2022/03/11 07:11:31;;;;;;;21.83;9.10;;;;;;;;;;5008524;28;20172;-76
2022/03/11 07:13:56;;;;;;;16.67;8.25;;;;;;;;;;4987144;28;20505;-77
2022/03/11 07:16:21;;;;;;;14.52;9.20;;;;;;;;;;4997268;28;20039;-76
2022/03/11 07:18:47;;;;;;;17.15;9.27;;;;;;;;;;5012655;28;20396;-77
2022/03/11 07:21:13;;;;;;;15.45;8.95;;;;;;;;;;5015055;28;20128;-77
2022/03/11 07:23:41;;;;;;;14.05;8.68;;;;;;;;;;5014310;28;20028;-70
2022/03/11 07:26:06;;;;;;;16.67;8.75;;;;;;;;;;5008146;28;20032;-70
2022/03/11 07:28:32;;;;;;;16.48;9.20;;;;;;;;;;5009789;28;20024;-69
2022/03/11 07:30:57;;;;;;;16.23;9.07;;;;;;;;;;5017391;28;20065;-71
2022/03/11 07:33:23;;;;;;;15.57;8.85;;;;;;;;;;5008874;28;20096;-69
2022/03/11 07:35:49;;;;;;;18.83;9.63;;;;;;;;;;5016425;28;20117;-70
2022/03/11 07:38:14;;;;;;;16.80;8.50;;;;;;;;;;5009760;28;20047;-70
2022/03/11 07:40:39;;;;;;;19.48;9.65;;;;;;;;;;5009508;28;20037;-69
2022/03/11 07:43:07;;;;;;;18.00;10.10;;;;;;;;;;5007768;28;20644;-69
2022/03/11 07:45:35;;;;;;;19.95;9.70;;;;;;;;;;5008003;28;20159;-69
2022/03/11 07:48:00;;;;;;;19.65;9.60;;;;;;;;;;5017544;28;20067;-69
2022/03/11 07:50:28;;;;;;;17.40;9.50;;;;;;;;;;5015050;28;20515;-70
2022/03/11 07:52:56;;;;;;;19.52;10.48;;;;;;;;;;5016788;28;20120;-70
2022/03/11 07:55:23;;;;;;;15.77;9.48;;;;;;;;;;5017096;28;20098;-70
2022/03/11 07:57:49;;;;;;;18.10;10.35;;;;;;;;;;5009917;28;20652;-69
2022/03/11 08:00:17;;;;;;;16.15;9.70;;;;;;;;;;4989218;28;20048;-69
2022/03/11 08:02:42;;;;;;;15.60;9.45;;;;;;;;;;5013038;28;20061;-69
2022/03/11 08:05:14;;;;;;;13.98;9.32;;;;;;;;;;5007492;28;20056;-69
2022/03/11 08:07:39;;;;;;;20.42;10.73;;;;;;;;;;5016696;28;20032;-69
2022/03/11 08:10:05;;;;;;;15.57;9.65;;;;;;;;;;5019499;28;20397;-69
2022/03/11 08:12:30;;;;;;;16.73;9.70;;;;;;;;;;5020004;28;20091;-69
2022/03/11 08:15:01;;;;;;;15.27;9.88;;;;;;;;;;5019340;28;20061;-69
2022/03/11 08:17:26;;;;;;;13.68;9.57;;;;;;;;;;5019736;28;20033;-70
2022/03/11 08:19:53;;;;;;;16.67;9.60;;;;;;;;;;5032635;28;20059;-70
2022/03/11 08:22:21;;;;;;;16.77;10.18;;;;;;;;;;5019577;28;20021;-69
2022/03/11 08:24:46;;;;;;;15.70;9.65;;;;;;;;;;5031399;28;20775;-70
2022/03/11 08:27:18;;;;;;;22.00;9.38;;;;;;;;;;5018875;28;20137;-69
2022/03/11 08:29:46;;;;;;;20.33;10.57;;;;;;;;;;5017024;28;20029;-70
2022/03/11 08:32:11;;;;;;;17.88;10.38;;;;;;;;;;5031086;28;20044;-69
2022/03/11 08:34:37;;;;;;;18.90;10.63;;;;;;;;;;5031643;28;20556;-69
2022/03/11 08:37:04;;;;;;;15.70;9.93;;;;;;;;;;5018979;28;20033;-70
2022/03/11 08:39:31;;;;;;;17.92;9.75;;;;;;;;;;5019576;28;20598;-69
2022/03/11 08:41:56;;;;;;;17.30;10.30;;;;;;;;;;5020640;28;21856;-69
2022/03/11 08:44:22;;;;;;;19.80;9.75;;;;;;;;;;5017532;28;20044;-71
2022/03/11 08:46:48;;;;;;;16.42;10.02;;;;;;;;;;5019074;28;20105;-70
2022/03/11 08:49:13;;;;;;;15.30;9.90;;;;;;;;;;5015241;28;20037;-69
2022/03/11 08:51:41;;;;;;;17.35;9.65;;;;;;;;;;5017721;28;20040;-68
2022/03/11 08:54:07;;;;;;;19.85;9.90;;;;;;;;;;5018220;28;20612;-68
2022/03/11 08:56:33;;;;;;;15.77;10.13;;;;;;;;;;5019301;28;20457;-69
2022/03/11 08:59:01;;;;;;;14.98;10.05;;;;;;;;;;5010266;28;20060;-70
2022/03/11 09:01:26;;;;;;;15.82;10.20;;;;;;;;;;5017154;28;20084;-69
2022/03/11 09:03:51;;;;;;;15.07;10.18;;;;;;;;;;5018846;28;20418;-70
2022/03/11 09:06:20;;;;;;;21.42;10.32;;;;;;;;;;5019640;28;20052;-69
2022/03/11 09:08:46;;;;;;;15.07;9.48;;;;;;;;;;5028606;28;20548;-69
2022/03/11 09:11:11;;;;;;;17.00;9.80;;;;;;;;;;5011132;28;20638;-69
2022/03/11 09:13:37;;;;;;;17.80;10.23;;;;;;;;;;5011234;28;20043;-68
2022/03/11 09:16:06;;;;;;;16.85;10.32;;;;;;;;;;5018541;28;20044;-69
2022/03/11 09:18:31;;;;;;;16.52;10.25;;;;;;;;;;5011722;28;20045;-70
2022/03/11 09:20:57;;;;;;;18.00;10.15;;;;;;;;;;5010894;28;20029;-70
2022/03/11 09:23:22;;;;;;;17.15;10.18;;;;;;;;;;5014286;28;20030;-72
2022/03/11 09:25:50;;;;;;;17.02;10.18;;;;;;;;;;5015859;28;20046;-69
2022/03/11 09:28:16;;;;;;;16.35;10.55;;;;;;;;;;5033034;28;20091;-68
2022/03/11 09:30:41;;;;;;;18.02;10.88;;;;;;;;;;5018441;28;20041;-69
2022/03/11 09:33:06;;;;;;;17.88;10.60;;;;;;;;;;5017273;28;20033;-70
2022/03/11 09:35:32;;;;;;;15.73;10.18;;;;;;;;;;5018231;28;20409;-69
2022/03/11 09:37:58;;;;;;;17.65;10.95;;;;;;;;;;5018716;28;20102;-68
2022/03/11 09:40:23;;;;;;;18.30;10.40;;;;;;;;;;5018507;28;20025;-69
2022/03/11 09:42:54;;;;;;;15.90;10.90;;;;;;;;;;5016653;28;20032;-69
2022/03/11 09:45:21;;;;;;;21.77;11.30;;;;;;;;;;5017162;28;20033;-69
2022/03/11 09:47:47;;;;;;;18.33;10.15;;;;;;;;;;5016958;28;20044;-69
2022/03/11 09:50:12;;;;;;;18.95;11.20;;;;;;;;;;5016267;28;20085;-68
2022/03/11 09:52:38;;;;;;;28.65;11.85;;;;;;;;;;5016498;28;20439;-69
2022/03/11 09:55:05;;;;;;;21.45;10.63;;;;;;;;;;5015715;28;20051;-69
2022/03/11 09:57:32;;;;;;;18.90;10.57;;;;;;;;;;5016614;28;20440;-69
2022/03/11 09:59:57;;;;;;;19.55;10.95;;;;;;;;;;5013628;28;21479;-70
2022/03/11 10:02:26;;;;;;;21.95;10.60;;;;;;;;;;5016216;28;20048;-69
2022/03/11 10:04:52;;;;;;;21.02;10.23;;;;;;;;;;5016611;28;20033;-67
2022/03/11 10:07:28;;;;;;;20.60;10.98;;;;;;;;;;5017910;28;20589;-70
2022/03/11 10:09:55;;;;;;;14.43;9.93;;;;;;;;;;5016565;28;20687;-69
2022/03/11 10:12:21;;;;;;;19.77;10.80;;;;;;;;;;5015283;28;20025;-69
2022/03/11 10:14:56;;;;;;;18.65;11.65;;;;;;;;;;5014290;28;20183;-69
2022/03/11 10:17:22;;;;;;;18.10;10.98;;;;;;;;;;5016033;28;20028;-68
2022/03/11 10:20:02;;;;;;;21.50;11.70;;;;;;;;;;5012645;28;20029;-69
2022/03/11 10:22:28;;;;;;;16.40;10.38;;;;;;;;;;5015733;28;20037;-68
2022/03/11 10:24:58;;;;;;;17.02;10.90;;;;;;;;;;5014058;28;20142;-69
2022/03/11 10:27:23;;;;;;;18.15;11.02;;;;;;;;;;5016131;28;21874;-68
2022/03/11 10:29:49;;;;;;;21.52;10.98;;;;;;;;;;5006623;28;20777;-69
2022/03/11 10:32:24;;;;;;;20.45;11.10;;;;;;;;;;5016447;28;20036;-69
2022/03/11 10:34:53;;;;;;;15.88;10.77;;;;;;;;;;5016384;28;20128;-69
2022/03/11 10:37:19;;;;;;;19.50;11.23;;;;;;;;;;5016978;28;20486;-69
2022/03/11 10:39:46;;;;;;;18.88;11.00;;;;;;;;;;5015376;28;20041;-69
2022/03/11 10:42:11;;;;;;;16.50;10.68;;;;;;;;;;5015423;28;20036;-69
2022/03/11 10:44:36;;;;;;;16.45;10.63;;;;;;;;;;5013134;28;20025;-69
2022/03/11 10:47:18;;;;;;;15.45;10.60;;;;;;;;;;5013674;28;20362;-68
2022/03/11 10:49:49;;;;;;;17.15;11.02;;;;;;;;;;5014097;28;20385;-68
2022/03/11 10:52:27;;;;;;;17.92;11.27;;;;;;;;;;5015739;28;20315;-68
2022/03/11 10:54:53;;;;;;;18.52;10.60;;;;;;;;;;5015003;28;20039;-70
2022/03/11 10:57:18;;;;;;;19.02;11.00;;;;;;;;;;5016257;28;20033;-68
2022/03/11 10:59:45;;;;;;;16.73;10.82;;;;;;;;;;5016027;28;20468;-68
2022/03/11 11:02:16;;;;;;;17.90;11.68;;;;;;;;;;5014702;28;20148;-69
2022/03/11 11:04:43;;;;;;;22.70;10.70;;;;;;;;;;5016082;28;20111;-69
2022/03/11 11:07:10;;;;;;;18.98;12.20;;;;;;;;;;5013284;28;20448;-70
2022/03/11 11:09:35;;;;;;;19.55;11.90;;;;;;;;;;4987750;28;20033;-70
2022/03/11 11:12:01;;;;;;;20.80;11.88;;;;;;;;;;5013306;28;20524;-70
2022/03/11 11:14:26;;;;;;;15.88;10.80;;;;;;;;;;5014549;28;20313;-70
2022/03/11 11:16:55;;;;;;;19.20;11.90;;;;;;;;;;5012582;28;20033;-70
2022/03/11 11:19:23;;;;;;;18.75;12.05;;;;;;;;;;5014944;28;20020;-70
2022/03/11 11:21:49;;;;;;;19.45;12.40;;;;;;;;;;5014793;28;20173;-70
2022/03/11 11:24:19;;;;;;;18.95;11.65;;;;;;;;;;5008347;28;20113;-71
2022/03/11 11:26:50;;;;;;;17.83;10.93;;;;;;;;;;5006775;28;20358;-70
2022/03/11 11:29:22;;;;;;;16.55;11.10;;;;;;;;;;5016498;28;20598;-69
2022/03/11 11:31:48;;;;;;;17.95;11.55;;;;;;;;;;5030552;28;20021;-68
2022/03/11 11:34:23;;;;;;;18.80;11.55;;;;;;;;;;5014852;28;20121;-68
2022/03/11 11:36:49;;;;;;;15.82;11.10;;;;;;;;;;5015793;28;20128;-69
2022/03/11 11:39:15;;;;;;;15.00;10.63;;;;;;;;;;5015756;28;20488;-70
2022/03/11 11:41:40;;;;;;;17.23;11.48;;;;;;;;;;5014259;28;20029;-70
2022/03/11 11:44:06;;;;;;;21.98;11.20;;;;;;;;;;5016464;28;20044;-70
2022/03/11 11:46:36;;;;;;;16.30;11.63;;;;;;;;;;5019807;28;20028;-69
2022/03/11 11:49:08;;;;;;;18.33;11.07;;;;;;;;;;5020479;28;20037;-70
2022/03/11 11:51:34;;;;;;;17.83;12.05;;;;;;;;;;5019844;28;20457;-70
2022/03/11 11:54:10;;;;;;;17.85;12.13;;;;;;;;;;5035564;28;20044;-70
2022/03/11 11:56:37;;;;;;;22.65;13.45;;;;;;;;;;5020334;28;20062;-69
2022/03/11 11:59:10;;;;;;;17.98;12.13;;;;;;;;;;5020559;28;20022;-68
2022/03/11 12:01:39;;;;;;;21.40;12.40;;;;;;;;;;5020319;28;20045;-69
2022/03/11 12:04:23;;;;;;;17.25;11.77;;;;;;;;;;5019181;28;20048;-68
2022/03/11 12:06:57;;;;;;;17.25;11.32;;;;;;;;;;5012006;28;20032;-69
2022/03/11 12:09:39;;;;;;;15.75;10.77;;;;;;;;;;5018805;28;20029;-68
2022/03/11 12:12:20;;;;;;;19.45;11.20;;;;;;;;;;5020067;28;20028;-68
2022/03/11 12:15:08;;;;;;;19.50;11.95;;;;;;;;;;4994176;28;20081;-69
2022/03/11 12:18:00;;;;;;;18.00;11.30;;;;;;;;;;5019735;28;20029;-69
2022/03/11 12:20:28;;;;;;;17.25;11.68;;;;;;;;;;5009308;28;20025;-69
2022/03/11 12:23:03;;;;;;;22.63;11.63;;;;;;;;;;5016788;28;20021;-69
2022/03/11 12:25:31;;;;;;;18.15;12.02;;;;;;;;;;5019513;28;20481;-70
2022/03/11 12:28:03;;;;;;;16.88;11.63;;;;;;;;;;5016951;28;20040;-70
2022/03/11 12:30:37;;;;;;;18.10;12.65;;;;;;;;;;5033284;28;20033;-69
2022/03/11 12:33:10;;;;;;;19.15;11.77;;;;;;;;;;5016489;28;20096;-68
2022/03/11 12:35:36;;;;;;;23.67;12.07;;;;;;;;;;5016568;28;20696;-68
2022/03/11 12:38:02;;;;;;;26.55;12.10;;;;;;;;;;5017426;28;20052;-68
2022/03/11 12:40:28;;;;;;;18.35;12.13;;;;;;;;;;5017094;28;20029;-68
2022/03/11 12:42:59;;;;;;;24.92;13.52;;;;;;;;;;5018074;28;20089;-68
2022/03/11 12:46:05;;;;;;;23.92;12.32;;;;;;;;;;5016424;28;20414;-70
2022/03/11 12:48:39;;;;;;;19.75;12.73;;;;;;;;;;4969683;28;20092;-71
2022/03/11 12:51:05;;;;;;;17.65;12.18;;;;;;;;;;4986497;28;20030;-70
2022/03/11 12:53:31;;;;;;;24.10;13.75;;;;;;;;;;5004523;28;20041;-70
2022/03/11 12:55:57;;;;;;;21.77;13.23;;;;;;;;;;4972055;28;20511;-70
2022/03/11 12:58:48;;;;;;;19.38;12.35;;;;;;;;;;5018823;28;20459;-69
2022/03/11 13:01:13;;;;;;;22.20;12.95;;;;;;;;;;5014436;28;20146;-69
2022/03/11 13:03:40;;;;;;;20.92;13.40;;;;;;;;;;4999520;28;20029;-70
2022/03/11 13:06:07;;;;;;;23.23;14.00;;;;;;;;;;5018873;28;20083;-69
2022/03/11 13:08:33;;;;;;;26.67;13.75;;;;;;;;;;5016271;28;20033;-69
2022/03/11 13:11:02;;;;;;;22.33;13.13;;;;;;;;;;5017514;28;20032;-69
2022/03/11 13:13:33;;;;;;;22.63;13.38;;;;;;;;;;5008523;28;20257;-69
2022/03/11 13:16:00;;;;;;;20.13;13.15;;;;;;;;;;5016504;28;20043;-68
2022/03/11 13:18:26;;;;;;;21.73;13.18;;;;;;;;;;5017914;28;20032;-69
2022/03/11 13:20:52;;;;;;;24.38;14.10;;;;;;;;;;5018110;28;20558;-68
2022/03/11 13:23:24;;;;;;;22.60;13.75;;;;;;;;;;5014205;28;20555;-70
2022/03/11 13:25:51;;;;;;;21.13;13.07;;;;;;;;;;5017280;28;20017;-70
2022/03/11 13:28:18;;;;;;;23.77;14.43;;;;;;;;;;5015848;28;20695;-68
2022/03/11 13:30:44;;;;;;;23.95;13.80;;;;;;;;;;5031067;28;20051;-69
2022/03/11 13:33:10;;;;;;;27.30;15.30;;;;;;;;;;5018122;28;20021;-70
2022/03/11 13:35:36;;;;;;;25.92;14.02;;;;;;;;;;5017137;28;20623;-69
2022/03/11 13:38:04;;;;;;;26.92;13.95;;;;;;;;;;5015060;28;20729;-69
2022/03/11 13:40:32;;;;;;;27.83;14.25;;;;;;;;;;5016288;28;20064;-69
2022/03/11 13:43:01;;;;;;;29.48;14.63;;;;;;;;;;5015702;28;20416;-69
2022/03/11 13:45:28;;;;;;;26.08;13.73;;;;;;;;;;5016765;28;20472;-71
2022/03/11 13:48:06;;;;;;;29.83;14.82;;;;;;;;;;5017099;28;20033;-70
2022/03/11 13:50:33;;;;;;;24.35;14.25;;;;;;;;;;5015756;28;20021;-69
2022/03/11 13:53:02;;;;;;;25.50;15.00;;;;;;;;;;5008780;28;20032;-69
2022/03/11 13:55:32;;;;;;;25.55;14.98;;;;;;;;;;5010227;28;20048;-70
2022/03/11 13:58:16;;;;;;;20.35;14.32;;;;;;;;;;5016100;28;20113;-71
2022/03/11 14:00:42;;;;;;;21.48;14.77;;;;;;;;;;4992652;28;20561;-68
2022/03/11 14:03:20;;;;;;;18.98;13.43;;;;;;;;;;5008555;28;20049;-69
2022/03/11 14:05:46;;;;;;;27.70;14.40;;;;;;;;;;5017152;28;20029;-70
2022/03/11 14:08:14;;;;;;;25.00;14.18;;;;;;;;;;5031972;28;20044;-69
2022/03/11 14:10:45;;;;;;;23.55;14.07;;;;;;;;;;5032578;28;20049;-69
2022/03/11 14:13:12;;;;;;;28.30;15.23;;;;;;;;;;5010303;28;20133;-69
2022/03/11 14:15:39;;;;;;;23.83;14.07;;;;;;;;;;5005026;28;20036;-68
2022/03/11 14:18:05;;;;;;;19.58;14.50;;;;;;;;;;5010525;28;21906;-69
2022/03/11 14:20:31;;;;;;;26.02;14.55;;;;;;;;;;5031148;28;20476;-69
2022/03/11 14:22:57;;;;;;;43.60;19.50;;;;;;;;;;5013582;28;20033;-68
2022/03/11 14:25:23;;;;;;;29.58;14.75;;;;;;;;;;5012115;28;20035;-69